createdAt,value
2018-09-05T00:00:22.597Z,38.87
2018-09-05T00:02:50.966Z,28.87
2018-09-05T00:05:19.268Z,29.67
2018-09-05T00:07:47.537Z,25.47
2018-09-05T00:10:15.825Z,30.90
2018-09-05T00:12:44.127Z,36.10
2018-09-05T00:15:12.402Z,30.90
2018-09-05T00:17:40.678Z,26.90
2018-09-05T00:20:08.949Z,32.53
2018-09-05T00:22:37.241Z,31.17
2018-09-05T00:25:05.718Z,32.83
2018-09-05T00:27:33.969Z,30.17
2018-09-05T00:30:02.254Z,29.80
2018-09-05T00:32:30.557Z,30.13
2018-09-05T00:34:58.889Z,26.70
2018-09-05T00:37:27.252Z,27.37
2018-09-05T00:39:55.589Z,29.17
2018-09-05T00:42:23.913Z,29.23
2018-09-05T00:44:52.329Z,30.40
2018-09-05T00:47:20.821Z,32.10
2018-09-05T00:49:49.293Z,36.67
2018-09-05T00:52:18.128Z,31.93
2018-09-05T00:54:46.472Z,35.43
2018-09-05T00:57:14.758Z,31.93
2018-09-05T00:59:43.030Z,32.47
2018-09-05T01:02:11.365Z,35.20
2018-09-05T01:04:39.640Z,28.20
2018-09-05T01:07:19.473Z,29.43
2018-09-05T01:09:47.990Z,29.50
2018-09-05T01:12:16.737Z,32.60
2018-09-05T01:14:44.986Z,28.70
2018-09-05T01:17:13.545Z,31.00
2018-09-05T01:19:41.889Z,28.87
2018-09-05T01:22:10.357Z,29.57
2018-09-05T01:24:38.954Z,29.03
2018-09-05T01:27:08.629Z,31.87
2018-09-05T01:29:38.113Z,30.53
2018-09-05T01:32:07.358Z,30.57
2018-09-05T01:34:35.710Z,33.47
2018-09-05T01:37:04.272Z,37.93
2018-09-05T01:39:32.524Z,30.93
2018-09-05T01:42:00.848Z,32.70
2018-09-05T01:44:29.105Z,32.77
2018-09-05T01:46:57.373Z,34.73
2018-09-05T01:49:25.670Z,32.23
2018-09-05T01:51:57.970Z,34.10
2018-09-05T01:54:26.277Z,35.57
2018-09-05T01:56:55.327Z,36.67
2018-09-05T01:59:24.294Z,36.47
2018-09-05T02:01:52.611Z,36.00
2018-09-05T02:04:21.107Z,32.93
2018-09-05T02:06:49.370Z,37.40
2018-09-05T02:09:17.674Z,33.57
2018-09-05T02:11:45.964Z,35.40
2018-09-05T02:14:20.518Z,33.60
2018-09-05T02:16:48.782Z,34.50
2018-09-05T02:19:17.057Z,40.07
2018-09-05T02:21:45.365Z,46.10
2018-09-05T02:24:13.582Z,48.57
2018-09-05T02:26:41.859Z,54.73
2018-09-05T02:29:10.151Z,62.27
2018-09-05T02:31:38.421Z,60.87
2018-09-05T02:34:06.726Z,57.93
2018-09-05T02:36:34.985Z,46.43
2018-09-05T02:39:03.454Z,49.67
2018-09-05T02:41:31.730Z,52.03
2018-09-05T02:44:05.453Z,50.20
2018-09-05T02:46:33.713Z,56.47
2018-09-05T02:49:02.000Z,60.23
2018-09-05T02:51:30.331Z,59.43
2018-09-05T02:53:58.588Z,76.83
2018-09-05T02:56:26.897Z,64.37
2018-09-05T02:58:55.169Z,71.80
2018-09-05T03:01:23.437Z,73.17
2018-09-05T03:03:51.789Z,60.67
2018-09-05T03:06:20.097Z,64.43
2018-09-05T03:08:48.386Z,58.60
2018-09-05T03:11:16.714Z,86.33
2018-09-05T03:13:44.968Z,62.17
2018-09-05T03:16:13.265Z,71.97
2018-09-05T03:18:41.524Z,72.93
2018-09-05T03:21:09.816Z,74.50
2018-09-05T03:23:38.194Z,67.57
2018-09-05T03:26:06.405Z,82.50
2018-09-05T03:28:34.707Z,66.63
2018-09-05T03:31:02.983Z,62.70
2018-09-05T03:33:31.294Z,83.07
2018-09-05T03:35:59.742Z,62.57
2018-09-05T03:38:28.030Z,74.63
2018-09-05T03:40:56.498Z,58.87
2018-09-05T03:43:24.744Z,56.00
2018-09-05T03:45:53.021Z,59.90
2018-09-05T03:48:21.557Z,51.13
2018-09-05T03:50:54.017Z,48.67
2018-09-05T03:53:22.332Z,54.00
2018-09-05T03:55:50.702Z,41.57
2018-09-05T03:58:19.003Z,49.97
2018-09-05T04:00:47.242Z,52.03
2018-09-05T04:03:15.538Z,55.57
2018-09-05T04:05:43.785Z,40.53
2018-09-05T04:08:12.072Z,36.07
2018-09-05T04:10:40.457Z,39.33
2018-09-05T04:13:08.744Z,38.30
2018-09-05T04:15:37.078Z,41.07
2018-09-05T04:18:05.463Z,41.30
2018-09-05T04:20:33.773Z,41.97
2018-09-05T04:23:02.097Z,37.03
2018-09-05T04:25:30.645Z,39.13
2018-09-05T04:27:58.906Z,36.10
2018-09-05T04:30:27.164Z,40.90
2018-09-05T04:32:55.425Z,37.93
2018-09-05T04:35:23.731Z,40.23
2018-09-05T04:37:52.125Z,37.83
2018-09-05T04:40:20.430Z,43.37
2018-09-05T04:42:48.712Z,37.70
2018-09-05T04:45:17.008Z,40.67
2018-09-05T04:47:45.267Z,47.77
2018-09-05T04:50:13.577Z,47.70
2018-09-05T04:52:41.913Z,46.87
2018-09-05T04:55:10.228Z,44.97
2018-09-05T04:57:38.473Z,41.60
2018-09-05T05:00:07.360Z,54.87
2018-09-05T05:02:35.678Z,51.00
2018-09-05T05:05:03.981Z,60.80
2018-09-05T05:07:32.249Z,61.10
2018-09-05T05:10:00.528Z,52.73
2018-09-05T05:12:28.812Z,52.07
2018-09-05T05:14:57.113Z,59.47
2018-09-05T05:17:25.389Z,58.40
2018-09-05T05:19:53.629Z,51.33
2018-09-05T05:22:21.906Z,57.93
2018-09-05T05:24:50.278Z,55.30
2018-09-05T05:27:18.582Z,64.90
2018-09-05T05:29:46.944Z,79.60
2018-09-05T05:32:15.222Z,72.33
2018-09-05T05:34:43.522Z,53.03
2018-09-05T05:37:11.773Z,58.20
2018-09-05T05:39:40.029Z,50.70
2018-09-05T05:42:08.317Z,44.90
2018-09-05T05:44:36.770Z,93.30
2018-09-05T05:47:05.092Z,53.77
2018-09-05T05:49:33.361Z,53.47
2018-09-05T05:52:01.624Z,52.87
2018-09-05T05:54:29.909Z,46.33
2018-09-05T05:56:58.145Z,55.27
2018-09-05T05:59:26.565Z,53.80
2018-09-05T06:01:54.849Z,71.23
2018-09-05T06:04:23.133Z,37.87
2018-09-05T06:06:51.429Z,53.53
2018-09-05T06:09:19.668Z,52.43
2018-09-05T06:11:48.032Z,52.20
2018-09-05T06:14:16.561Z,48.83
2018-09-05T06:16:44.798Z,55.23
2018-09-05T06:19:13.085Z,48.27
2018-09-05T06:21:41.360Z,49.17
2018-09-05T06:24:09.684Z,51.73
2018-09-05T06:26:37.928Z,38.77
2018-09-05T06:29:06.249Z,54.50
2018-09-05T06:31:35.067Z,46.23
2018-09-05T06:34:03.404Z,49.10
2018-09-05T06:36:31.636Z,47.20
2018-09-05T06:39:00.029Z,43.67
2018-09-05T06:41:28.269Z,42.13
2018-09-05T06:43:56.519Z,37.97
2018-09-05T06:46:24.757Z,40.77
2018-09-05T06:48:56.015Z,36.53
2018-09-05T06:51:24.291Z,40.37
2018-09-05T06:53:52.832Z,42.97
2018-09-05T06:56:21.149Z,38.50
2018-09-05T06:58:49.434Z,35.03
2018-09-05T07:01:17.792Z,32.87
2018-09-05T07:03:46.089Z,30.87
2018-09-05T07:06:14.360Z,28.57
2018-09-05T07:08:42.669Z,29.17
2018-09-05T07:11:10.948Z,22.70
2018-09-05T07:13:39.201Z,26.13
2018-09-05T07:16:07.493Z,26.20
2018-09-05T07:18:35.969Z,25.60
2018-09-05T07:21:07.056Z,23.57
2018-09-05T07:23:32.527Z,28.07
2018-09-05T07:26:00.931Z,27.77
2018-09-05T07:28:29.214Z,25.50
2018-09-05T07:30:57.565Z,24.17
2018-09-05T07:33:25.991Z,26.00
2018-09-05T07:35:54.362Z,23.50
2018-09-05T07:38:22.632Z,26.17
2018-09-05T07:40:50.905Z,25.13
2018-09-05T07:43:19.292Z,26.77
2018-09-05T07:45:47.577Z,22.27
2018-09-05T07:48:15.941Z,22.57
2018-09-05T07:50:44.267Z,24.77
2018-09-05T07:53:12.465Z,23.07
2018-09-05T07:58:15.389Z,19.90
2018-09-05T08:00:43.644Z,22.17
2018-09-05T08:03:11.955Z,18.27
2018-09-05T08:05:40.260Z,20.53
2018-09-05T08:08:08.533Z,20.40
2018-09-05T08:10:36.881Z,19.97
2018-09-05T08:13:05.262Z,25.10
2018-09-05T08:22:33.497Z,20.03
2018-09-05T08:25:01.756Z,18.97
2018-09-05T08:27:30.021Z,19.33
2018-09-05T08:29:58.338Z,18.47
2018-09-05T08:32:26.612Z,17.63
2018-09-05T08:34:55.032Z,17.00
2018-09-05T08:37:23.388Z,17.23
2018-09-05T08:39:51.594Z,18.87
2018-09-05T08:42:19.925Z,13.70
2018-09-05T08:44:48.524Z,14.47
2018-09-05T08:47:16.486Z,14.63
2018-09-05T08:49:44.746Z,12.30
2018-09-05T08:52:13.113Z,13.07
2018-09-05T08:54:41.380Z,12.67
2018-09-05T08:57:09.690Z,10.63
2018-09-05T08:59:37.953Z,10.73
2018-09-05T09:02:06.317Z,11.80
2018-09-05T09:04:34.609Z,10.17
2018-09-05T09:07:02.902Z,9.57
2018-09-05T09:09:31.134Z,9.53
2018-09-05T09:11:59.390Z,8.53
2018-09-05T09:14:27.667Z,12.13
2018-09-05T09:16:55.945Z,10.50
2018-09-05T09:19:24.241Z,8.63
2018-09-05T09:21:52.530Z,7.20
2018-09-05T09:24:20.822Z,8.33
2018-09-05T09:26:49.085Z,7.97
2018-09-05T09:29:17.365Z,7.53
2018-09-05T09:31:45.665Z,8.50
2018-09-05T09:34:14.050Z,7.27
2018-09-05T09:36:42.359Z,11.13
2018-09-05T09:39:11.477Z,7.47
2018-09-05T09:41:39.864Z,7.23
2018-09-05T09:44:08.177Z,6.33
2018-09-05T09:46:36.913Z,10.27
2018-09-05T09:49:05.130Z,8.00
2018-09-05T09:51:33.388Z,7.53
2018-09-05T09:54:01.682Z,6.60
2018-09-05T09:56:29.935Z,7.27
2018-09-05T09:58:58.247Z,6.73
2018-09-05T10:01:31.837Z,7.20
2018-09-05T10:04:05.454Z,6.90
2018-09-05T10:06:39.118Z,6.83
2018-09-05T10:09:13.530Z,7.10
2018-09-05T10:11:47.471Z,7.20
2018-09-05T10:14:21.193Z,6.47
2018-09-05T10:16:54.920Z,6.23
2018-09-05T10:19:23.213Z,5.83
2018-09-05T10:21:53.569Z,5.58
2018-09-05T10:24:21.857Z,5.37
2018-09-05T10:26:50.118Z,5.65
2018-09-05T10:29:18.409Z,7.37
2018-09-05T10:31:46.730Z,5.37
2018-09-05T10:34:14.911Z,5.35
2018-09-05T10:36:43.209Z,6.15
2018-09-05T10:39:11.692Z,6.03
2018-09-05T10:41:40.249Z,4.95
2018-09-05T10:44:09.058Z,4.65
2018-09-05T10:46:37.753Z,5.05
2018-09-05T10:49:06.073Z,5.50
2018-09-05T10:51:39.677Z,6.90
2018-09-05T10:54:08.135Z,5.30
2018-09-05T10:56:36.433Z,4.70
2018-09-05T10:59:04.747Z,6.20
2018-09-05T11:01:33.030Z,7.62
2018-09-05T11:04:01.351Z,4.60
2018-09-05T11:06:29.615Z,5.85
2018-09-05T11:08:57.857Z,5.85
2018-09-05T11:11:26.113Z,4.87
2018-09-05T11:13:54.564Z,3.85
2018-09-05T11:16:22.925Z,6.10
2018-09-05T11:18:51.305Z,6.00
2018-09-05T11:21:19.590Z,5.60
2018-09-05T11:23:47.773Z,4.28
2018-09-05T11:26:16.027Z,5.97
2018-09-05T11:28:44.317Z,5.17
2018-09-05T11:31:13.066Z,4.95
2018-09-05T11:33:41.370Z,4.78
2018-09-05T11:36:09.621Z,4.35
2018-09-05T11:38:37.954Z,4.12
2018-09-05T11:41:06.263Z,4.53
2018-09-05T11:43:34.512Z,4.33
2018-09-05T11:46:02.775Z,4.83
2018-09-05T11:48:31.254Z,5.90
2018-09-05T11:50:59.893Z,4.28
2018-09-05T11:53:28.363Z,4.37
2018-09-05T11:55:56.642Z,4.35
2018-09-05T11:58:24.881Z,4.05
2018-09-05T12:00:53.176Z,4.20
2018-09-05T12:03:21.421Z,4.15
2018-09-05T12:05:49.653Z,5.67
2018-09-05T12:08:17.905Z,3.87
2018-09-05T12:10:46.222Z,5.03
2018-09-05T12:13:14.449Z,4.30
2018-09-05T12:15:43.779Z,4.35
2018-09-05T12:18:11.889Z,7.12
2018-09-05T12:20:40.158Z,4.47
2018-09-05T12:23:08.473Z,4.37
2018-09-05T12:25:37.093Z,5.20
2018-09-05T12:28:05.364Z,4.97
2018-09-05T12:30:33.601Z,4.58
2018-09-05T12:33:01.878Z,4.30
2018-09-05T12:35:30.145Z,5.42
2018-09-05T12:37:58.405Z,3.80
2018-09-05T12:40:26.677Z,3.60
2018-09-05T12:42:54.942Z,4.12
2018-09-05T12:45:23.179Z,5.62
2018-09-05T12:47:51.433Z,5.12
2018-09-05T12:50:19.681Z,6.08
2018-09-05T12:52:47.957Z,4.15
2018-09-05T12:55:16.236Z,5.83
2018-09-05T12:57:44.518Z,3.77
2018-09-05T13:00:12.903Z,5.60
2018-09-05T13:02:41.165Z,6.25
2018-09-05T13:05:09.532Z,5.85
2018-09-05T13:07:37.773Z,4.97
2018-09-05T13:10:06.090Z,5.10
2018-09-05T13:12:34.444Z,3.90
2018-09-05T13:15:02.677Z,3.87
2018-09-05T13:17:30.973Z,4.50
2018-09-05T13:19:59.262Z,3.67
2018-09-05T13:22:27.549Z,4.12
2018-09-05T13:24:55.757Z,4.53
2018-09-05T13:27:24.121Z,5.25
2018-09-05T13:29:52.362Z,4.50
2018-09-05T13:32:20.613Z,4.25
2018-09-05T13:34:48.850Z,4.10
2018-09-05T13:37:17.150Z,8.48
2018-09-05T13:39:45.599Z,4.67
2018-09-05T13:42:13.808Z,5.05
2018-09-05T13:44:42.079Z,4.12
2018-09-05T13:47:10.523Z,5.00
2018-09-05T13:49:38.978Z,3.98
2018-09-05T13:52:07.337Z,4.15
2018-09-05T13:54:36.897Z,5.92
2018-09-05T13:57:05.213Z,5.95
2018-09-05T13:59:33.561Z,5.22
2018-09-05T14:02:01.847Z,6.15
2018-09-05T14:04:30.210Z,5.08
2018-09-05T14:06:58.519Z,3.98
2018-09-05T14:09:26.808Z,4.67
2018-09-05T14:11:55.065Z,4.05
2018-09-05T14:14:27.105Z,4.55
2018-09-05T14:16:55.505Z,6.12
2018-09-05T14:19:30.327Z,4.60
2018-09-05T14:21:58.598Z,4.95
2018-09-05T14:24:26.906Z,4.28
2018-09-05T14:26:55.153Z,5.28
2018-09-05T14:29:23.574Z,5.70
2018-09-05T14:31:51.913Z,4.87
2018-09-05T14:34:20.190Z,5.37
2018-09-05T14:36:48.429Z,9.03
2018-09-05T14:39:16.698Z,5.53
2018-09-05T14:41:45.133Z,5.40
2018-09-05T14:44:15.186Z,5.15
2018-09-05T14:46:43.499Z,5.70
2018-09-05T14:49:11.821Z,4.62
2018-09-05T14:51:40.061Z,4.00
2018-09-05T14:54:08.353Z,4.85
2018-09-05T14:56:36.614Z,5.95
2018-09-05T14:59:04.879Z,4.17
2018-09-05T15:01:33.177Z,6.08
2018-09-05T15:04:01.533Z,4.53
2018-09-05T15:06:29.823Z,4.28
2018-09-05T15:08:58.021Z,5.33
2018-09-05T15:11:26.274Z,5.12
2018-09-05T15:13:54.580Z,5.42
2018-09-05T15:16:22.951Z,5.75
2018-09-05T15:18:51.318Z,4.12
2018-09-05T15:21:19.624Z,6.22
2018-09-05T15:23:47.961Z,3.80
2018-09-05T15:26:16.277Z,6.25
2018-09-05T15:28:44.632Z,4.35
2018-09-05T15:31:12.923Z,49.50
2018-09-05T15:33:41.212Z,62.15
2018-09-05T15:36:09.489Z,33.37
2018-09-05T15:38:37.781Z,18.07
2018-09-05T15:41:06.146Z,12.83
2018-09-05T15:43:34.401Z,7.63
2018-09-05T15:46:02.707Z,5.93
2018-09-05T15:48:30.964Z,4.90
2018-09-05T15:50:59.410Z,7.03
2018-09-05T15:53:27.797Z,7.53
2018-09-05T15:55:56.033Z,7.37
2018-09-05T15:58:24.540Z,4.00
2018-09-05T16:00:52.869Z,4.20
2018-09-05T16:03:21.134Z,6.07
2018-09-05T16:05:49.384Z,11.93
2018-09-05T16:08:17.660Z,6.13
2018-09-05T16:10:45.881Z,4.40
2018-09-05T16:13:14.286Z,5.30
2018-09-05T16:15:42.704Z,9.23
2018-09-05T16:18:10.831Z,5.10
2018-09-05T16:20:39.689Z,7.93
2018-09-05T16:23:07.985Z,5.60
2018-09-05T16:25:36.252Z,7.83
2018-09-05T16:28:04.637Z,7.90
2018-09-05T16:30:33.021Z,7.67
2018-09-05T16:33:01.274Z,6.60
2018-09-05T16:35:29.650Z,9.90
2018-09-05T16:37:57.938Z,7.23
2018-09-05T16:40:26.405Z,6.50
2018-09-05T16:42:54.677Z,6.90
2018-09-05T16:45:22.960Z,5.17
2018-09-05T16:47:51.235Z,6.70
2018-09-05T16:50:19.526Z,8.40
2018-09-05T16:52:47.787Z,5.40
2018-09-05T16:55:16.197Z,7.57
2018-09-05T16:57:44.468Z,7.90
2018-09-05T17:00:12.743Z,5.17
2018-09-05T17:02:40.987Z,7.30
2018-09-05T17:05:09.264Z,5.33
2018-09-05T17:07:37.556Z,4.67
2018-09-05T17:10:05.840Z,5.40
2018-09-05T17:12:34.202Z,5.40
2018-09-05T17:15:02.470Z,8.33
2018-09-05T17:17:30.749Z,7.37
2018-09-05T17:19:59.042Z,4.97
2018-09-05T17:22:27.249Z,8.00
2018-09-05T17:24:55.471Z,6.47
2018-09-05T17:27:23.697Z,5.33
2018-09-05T17:29:52.130Z,5.90
2018-09-05T17:32:20.358Z,5.80
2018-09-05T17:34:48.577Z,8.53
2018-09-05T17:37:16.810Z,5.90
2018-09-05T17:39:45.057Z,8.47
2018-09-05T17:42:13.341Z,5.77
2018-09-05T17:44:41.641Z,4.87
2018-09-05T17:47:09.916Z,9.33
2018-09-05T17:49:38.198Z,7.60
2018-09-05T17:52:06.539Z,6.30
2018-09-05T17:54:34.822Z,5.30
2018-09-05T17:57:03.157Z,6.47
2018-09-05T17:59:31.383Z,6.47
2018-09-05T18:01:59.709Z,5.70
2018-09-05T18:04:27.925Z,7.27
2018-09-05T18:06:56.185Z,5.50
2018-09-05T18:09:24.443Z,5.67
2018-09-05T18:11:52.814Z,5.50
2018-09-05T18:14:21.056Z,4.97
2018-09-05T18:16:49.513Z,7.40
2018-09-05T18:19:17.751Z,5.00
2018-09-05T18:21:46.013Z,6.57
2018-09-05T18:24:14.253Z,5.07
2018-09-05T18:26:42.463Z,8.03
2018-09-05T18:29:10.785Z,5.13
2018-09-05T18:31:38.992Z,5.87
2018-09-05T18:34:07.503Z,5.00
2018-09-05T18:36:35.809Z,5.17
2018-09-05T18:39:05.542Z,5.07
2018-09-05T18:41:33.783Z,7.83
2018-09-05T18:44:02.021Z,4.77
2018-09-05T18:46:30.293Z,5.27
2018-09-05T18:48:58.568Z,5.50
2018-09-05T18:51:26.837Z,5.73
2018-09-05T18:53:55.079Z,4.87
2018-09-05T18:56:23.378Z,6.07
2018-09-05T18:58:51.642Z,5.27
2018-09-05T19:01:20.013Z,5.53
2018-09-05T19:03:48.305Z,7.20
2018-09-05T19:06:16.670Z,7.20
2018-09-05T19:08:44.945Z,6.37
2018-09-05T19:11:13.345Z,4.60
2018-09-05T19:13:41.829Z,5.30
2018-09-05T19:16:10.053Z,6.93
2018-09-05T19:18:38.339Z,5.00
2018-09-05T19:21:06.610Z,6.83
2018-09-05T19:23:37.780Z,4.80
2018-09-05T19:26:06.264Z,7.67
2018-09-05T19:28:34.729Z,7.40
2018-09-05T19:31:02.999Z,8.13
2018-09-05T19:33:31.443Z,6.13
2018-09-05T19:35:59.701Z,6.67
2018-09-05T19:38:28.019Z,5.20
2018-09-05T19:40:56.645Z,5.60
2018-09-05T19:43:24.893Z,7.27
2018-09-05T19:45:55.270Z,7.97
2018-09-05T19:48:23.514Z,6.20
2018-09-05T19:50:51.865Z,9.20
2018-09-05T19:53:20.096Z,6.47
2018-09-05T19:55:48.363Z,7.47
2018-09-05T19:58:16.657Z,7.50
2018-09-05T20:00:44.941Z,6.93
2018-09-05T20:03:13.291Z,5.93
2018-09-05T20:05:41.651Z,8.27
2018-09-05T20:08:09.924Z,6.53
2018-09-05T20:10:38.228Z,6.73
2018-09-05T20:13:07.134Z,5.90
2018-09-05T20:15:35.512Z,7.43
2018-09-05T20:18:03.836Z,5.57
2018-09-05T20:20:32.284Z,11.17
2018-09-05T20:23:00.545Z,6.87
2018-09-05T20:25:28.826Z,7.67
2018-09-05T20:27:57.121Z,5.97
2018-09-05T20:30:25.548Z,6.20
2018-09-05T20:32:53.884Z,7.07
2018-09-05T20:35:22.181Z,7.63
2018-09-05T20:37:50.429Z,5.73
2018-09-05T20:40:18.840Z,6.13
2018-09-05T20:42:47.594Z,7.43
2018-09-05T20:45:16.047Z,5.93
2018-09-05T20:47:44.682Z,8.00
2018-09-05T20:50:13.778Z,6.40
2018-09-05T20:52:42.050Z,6.77
2018-09-05T20:55:10.432Z,6.67
2018-09-05T20:57:38.747Z,6.10
2018-09-05T21:00:09.659Z,8.07
2018-09-05T21:02:38.038Z,6.87
2018-09-05T21:05:06.394Z,7.93
2018-09-05T21:07:34.724Z,6.97
2018-09-05T21:10:03.000Z,7.43
2018-09-05T21:12:31.464Z,8.50
2018-09-05T21:14:59.748Z,6.43
2018-09-05T21:17:28.035Z,7.20
2018-09-05T21:19:56.281Z,6.50
2018-09-05T21:22:24.680Z,6.77
2018-09-05T21:24:52.957Z,7.20
2018-09-05T21:27:21.247Z,7.87
2018-09-05T21:29:49.696Z,9.60
2018-09-05T21:32:18.009Z,7.23
2018-09-05T21:34:46.489Z,7.53
2018-09-05T21:37:14.755Z,7.00
2018-09-05T21:39:43.372Z,6.10
2018-09-05T21:42:11.649Z,8.30
2018-09-05T21:44:40.328Z,7.13
2018-09-05T21:47:08.636Z,6.77
2018-09-05T21:49:36.998Z,7.30
2018-09-05T21:52:05.416Z,6.50
2018-09-05T21:54:34.261Z,7.07
2018-09-05T21:57:02.533Z,7.30
2018-09-05T21:59:30.813Z,6.17
2018-09-05T22:01:59.081Z,6.13
2018-09-05T22:04:27.364Z,9.10
2018-09-05T22:06:55.685Z,9.73
2018-09-05T22:09:24.061Z,8.10
2018-09-05T22:11:52.328Z,6.63
2018-09-05T22:14:20.586Z,8.93
2018-09-05T22:16:48.817Z,7.23
2018-09-05T22:19:17.144Z,7.47
2018-09-05T22:21:45.524Z,7.53
2018-09-05T22:24:13.912Z,6.63
2018-09-05T22:26:42.144Z,7.23
2018-09-05T22:29:10.465Z,7.10
2018-09-05T22:31:38.833Z,8.50
2018-09-05T22:34:07.187Z,6.50
2018-09-05T22:36:35.545Z,6.83
2018-09-05T22:39:04.702Z,7.10
2018-09-05T22:41:32.978Z,7.20
2018-09-05T22:44:12.547Z,7.63
2018-09-05T22:46:52.213Z,6.80
2018-09-05T22:50:09.490Z,7.77
2018-09-05T22:53:24.462Z,6.27
2018-09-05T22:58:19.631Z,7.87
2018-09-05T23:03:00.846Z,6.37
2018-09-05T23:07:53.143Z,6.83
2018-09-05T23:10:32.770Z,7.63
2018-09-05T23:13:12.326Z,6.70
2018-09-05T23:15:51.800Z,6.93
2018-09-05T23:18:43.110Z,7.07
2018-09-05T23:21:22.108Z,9.33
2018-09-05T23:23:58.641Z,5.97
2018-09-05T23:26:27.060Z,7.37
2018-09-05T23:28:55.391Z,9.47
2018-09-05T23:31:24.088Z,6.53
2018-09-05T23:33:52.602Z,8.17
2018-09-05T23:36:21.843Z,7.00
2018-09-05T23:38:50.196Z,7.63
2018-09-05T23:41:18.527Z,7.97
2018-09-05T23:43:46.796Z,6.47
2018-09-05T23:46:15.042Z,7.37
2018-09-05T23:48:43.285Z,6.40
2018-09-05T23:51:11.590Z,8.60
2018-09-05T23:53:40.010Z,6.40
2018-09-05T23:56:08.258Z,7.47
2018-09-05T23:58:36.559Z,10.77
